Time;durP1;ratioP1;P1;durP2;ratioP2;P2;SDS_P1;SDS_P2;PMS_P1;PMS_P2;Temp;Humidity;BMP_temperature;BMP_pressure;BME280_temperature;BME280_humidity;BME280_pressure;Samples;Min_cycle;Max_cycle;Signal;HPM_P1;HPM_P2
2023/02/19 00:01:41;;;;;;;7.97;7.17;;;;;;;14.04;64.30;99302.19;6976298;28;20211;-82
2023/02/19 00:05:02;;;;;;;8.47;7.67;;;;;;;14.43;63.72;99305.56;6976494;28;20249;-83
2023/02/19 00:08:24;;;;;;;8.67;7.87;;;;;;;14.66;63.33;99315.88;6975479;28;20381;-82
2023/02/19 00:11:47;;;;;;;9.07;8.17;;;;;;;14.33;63.02;99263.69;6974965;28;20262;-82
2023/02/19 00:15:08;;;;;;;8.67;7.13;;;;;;;14.61;63.31;99308.38;6976820;28;20261;-82
2023/02/19 00:18:30;;;;;;;9.17;8.00;;;;;;;14.70;63.04;99304.34;6975565;28;20317;-83
2023/02/19 00:21:52;;;;;;;8.33;7.53;;;;;;;14.56;62.91;99304.63;6976079;28;20295;-82
2023/02/19 00:25:14;;;;;;;7.90;7.10;;;;;;;14.44;63.32;99303.66;6976149;28;20213;-82
2023/02/19 00:28:36;;;;;;;9.40;7.33;;;;;;;14.35;63.68;99291.44;6975068;28;20310;-82
2023/02/19 00:31:58;;;;;;;7.63;6.93;;;;;;;14.59;62.97;99296.06;6975726;28;20352;-82
2023/02/19 00:35:19;;;;;;;8.83;7.80;;;;;;;14.49;63.29;99296.56;6975511;28;20246;-82
2023/02/19 00:38:42;;;;;;;10.60;8.27;;;;;;;14.59;63.35;99290.66;6977117;28;20290;-82
2023/02/19 00:42:03;;;;;;;8.53;7.73;;;;;;;14.62;63.14;99306.50;6978342;28;20215;-82
2023/02/19 00:45:26;;;;;;;8.83;7.93;;;;;;;14.52;63.33;99300.72;6989018;28;20257;-82
2023/02/19 00:48:48;;;;;;;8.50;7.60;;;;;;;14.49;63.05;99298.44;6981003;28;20772;-82
2023/02/19 00:52:10;;;;;;;8.10;7.30;;;;;;;14.39;63.18;99304.34;6980210;28;20208;-82
2023/02/19 00:55:31;;;;;;;8.90;7.57;;;;;;;14.52;63.58;99306.16;6979507;28;20234;-82
2023/02/19 00:58:53;;;;;;;8.27;7.47;;;;;;;14.57;62.70;99307.16;6978628;28;20643;-83
2023/02/19 01:02:16;;;;;;;8.37;7.57;;;;;;;14.70;62.86;99306.25;6978605;28;20302;-82
2023/02/19 01:05:37;;;;;;;8.83;8.03;;;;;;;14.72;62.39;99277.81;6978175;28;20250;-82
2023/02/19 01:08:59;;;;;;;8.30;7.33;;;;;;;15.02;61.10;99265.25;6978857;28;20361;-81
2023/02/19 01:12:24;;;;;;;7.53;6.83;;;;;;;15.13;61.15;99288.97;6977629;28;20210;-82
2023/02/19 01:15:46;;;;;;;8.40;7.50;;;;;;;14.84;60.78;99259.78;6976728;28;20197;-82
2023/02/19 01:19:08;;;;;;;9.20;7.33;;;;;;;15.11;60.50;99271.25;6975872;28;20230;-83
2023/02/19 01:22:30;;;;;;;8.87;8.07;;;;;;;14.88;61.56;99268.31;6976517;28;20272;-82
2023/02/19 01:25:51;;;;;;;8.60;7.80;;;;;;;15.09;61.19;99265.19;6975799;28;20291;-82
2023/02/19 01:29:13;;;;;;;8.13;7.33;;;;;;;14.46;61.09;99163.22;6976413;28;20322;-82
2023/02/19 01:32:34;;;;;;;8.83;7.93;;;;;;;14.94;60.57;99273.69;6975398;28;20293;-81
2023/02/19 01:35:57;;;;;;;8.47;7.57;;;;;;;15.06;60.89;99261.06;6975129;28;20276;-82
2023/02/19 01:39:19;;;;;;;9.53;8.53;;;;;;;15.07;60.59;99260.00;6975732;28;20292;-82
2023/02/19 01:42:42;;;;;;;10.77;9.33;;;;;;;14.52;62.29;99241.84;6975299;28;20302;-82
2023/02/19 01:46:04;;;;;;;10.50;9.40;;;;;;;14.03;63.57;99246.28;6975177;28;20235;-82
2023/02/19 01:49:27;;;;;;;10.27;9.27;;;;;;;13.67;64.12;99219.78;6975613;28;20313;-82
2023/02/19 01:52:50;;;;;;;9.27;8.30;;;;;;;14.19;63.98;99249.38;6975867;28;20381;-82
2023/02/19 01:56:14;;;;;;;8.73;7.93;;;;;;;14.44;63.59;99244.81;6974559;28;20793;-82
2023/02/19 01:59:36;;;;;;;8.43;7.60;;;;;;;14.62;63.13;99249.53;6975017;28;20640;-82
2023/02/19 02:02:58;;;;;;;9.20;8.30;;;;;;;14.91;62.04;99246.97;6975229;28;20263;-82
2023/02/19 02:06:23;;;;;;;13.20;11.70;;;;;;;14.80;62.16;99244.97;6973675;28;20229;-82
2023/02/19 02:13:25;;;;;;;8.00;7.23;;;;;;;14.52;62.81;99222.84;6978426;28;20312;-82
2023/02/19 02:16:55;;;;;;;8.63;7.73;;;;;;;13.92;65.05;99236.16;6979593;28;20252;-82
2023/02/19 02:20:30;;;;;;;8.43;7.63;;;;;;;14.67;63.35;99242.38;6979689;28;20240;-82
2023/02/19 02:24:07;;;;;;;6.97;6.30;;;;;;;14.82;61.81;99210.28;6979725;28;20344;-82
2023/02/19 02:27:39;;;;;;;7.60;6.83;;;;;;;14.93;61.72;99236.72;6978750;28;20368;-82
2023/02/19 02:31:04;;;;;;;7.33;6.63;;;;;;;13.99;63.81;99240.47;6979950;28;20696;-82
2023/02/19 02:34:29;;;;;;;7.87;6.07;;;;;;;14.07;64.20;99234.81;6979645;28;20305;-82
2023/02/19 02:37:52;;;;;;;4.50;4.10;;;;;;;14.15;63.87;99220.97;6978473;28;20315;-83
2023/02/19 02:41:15;;;;;;;3.80;3.50;;;;;;;14.02;62.50;99179.56;6979449;28;20216;-83
2023/02/19 02:44:37;;;;;;;2.90;2.60;;;;;;;14.28;61.59;99211.97;6979159;28;20281;-81
2023/02/19 02:48:01;;;;;;;3.13;2.60;;;;;;;14.08;62.26;99211.22;6979205;28;20232;-82
2023/02/19 02:51:25;;;;;;;2.60;2.37;;;;;;;14.31;61.75;99195.25;6978958;28;20202;-82
2023/02/19 02:55:04;;;;;;;3.17;2.73;;;;;;;14.42;61.08;99184.53;6984803;28;20265;-82
2023/02/19 02:58:27;;;;;;;2.50;2.30;;;;;;;14.53;60.73;99218.25;6984683;28;20231;-82
2023/02/19 03:05:54;;;;;;;2.50;2.30;;;;;;;14.69;59.66;99212.31;6982287;28;20200;-82
2023/02/19 03:09:18;;;;;;;2.83;2.10;;;;;;;14.62;59.97;99197.97;6981914;28;20277;-82
2023/02/19 03:20:10;;;;;;;2.60;2.40;;;;;;;14.73;59.63;99202.63;6906044;28;20201;-82
2023/02/19 03:27:17;;;;;;;2.77;2.53;;;;;;;14.89;60.09;99188.50;6953405;28;20218;-82
2023/02/19 03:30:42;;;;;;;3.70;3.10;;;;;;;14.25;61.23;99160.88;6978835;28;20215;-81
2023/02/19 03:34:05;;;;;;;3.30;3.00;;;;;;;14.48;62.13;99196.38;6978854;28;20294;-82
2023/02/19 03:37:29;;;;;;;2.70;2.50;;;;;;;14.04;62.75;99205.41;6977936;28;20285;-82
2023/02/19 03:40:56;;;;;;;2.80;2.60;;;;;;;14.27;62.14;99194.84;6978512;28;20805;-82
2023/02/19 03:44:24;;;;;;;3.50;2.70;;;;;;;14.37;62.50;99213.38;6978306;28;20211;-82
2023/02/19 03:47:49;;;;;;;2.60;2.40;;;;;;;14.67;61.53;99211.66;6977627;28;20230;-82
2023/02/19 03:51:27;;;;;;;2.77;2.57;;;;;;;14.32;62.33;99197.75;6977946;28;20328;-82
2023/02/19 03:54:53;;;;;;;3.00;2.43;;;;;;;14.28;62.40;99182.16;6975885;28;20311;-82
2023/02/19 03:58:19;;;;;;;4.10;3.00;;;;;;;14.72;61.91;99215.41;6985220;28;20335;-83
2023/02/19 04:01:45;;;;;;;2.80;2.57;;;;;;;14.39;62.79;99205.84;6982366;28;20191;-82
2023/02/19 04:05:08;;;;;;;2.87;2.67;;;;;;;14.19;62.98;99229.53;6981455;28;20290;-82
2023/02/19 04:08:31;;;;;;;3.33;2.70;;;;;;;14.25;63.57;99225.97;6979810;28;20260;-82
2023/02/19 04:11:54;;;;;;;3.17;2.97;;;;;;;14.39;63.01;99220.22;6978745;28;20260;-83
2023/02/19 04:15:20;;;;;;;4.43;3.03;;;;;;;14.26;63.40;99223.03;6980070;28;20326;-82
2023/02/19 04:18:44;;;;;;;3.57;3.27;;;;;;;14.49;62.98;99241.44;6979283;28;20227;-82
2023/02/19 04:22:06;;;;;;;3.37;3.07;;;;;;;14.56;63.03;99231.38;6979872;28;20359;-82
2023/02/19 04:25:29;;;;;;;3.30;3.00;;;;;;;14.56;63.00;99242.22;6979093;28;20243;-82
2023/02/19 04:28:50;;;;;;;3.40;3.10;;;;;;;14.55;63.10;99246.84;6978088;28;20324;-82
2023/02/19 04:32:14;;;;;;;3.37;3.03;;;;;;;14.65;62.55;99243.63;6978436;28;20310;-82
2023/02/19 04:35:35;;;;;;;3.20;2.90;;;;;;;14.58;62.79;99240.97;6977478;28;20291;-81
2023/02/19 04:38:57;;;;;;;2.73;2.53;;;;;;;14.18;62.69;99196.16;6977794;28;20307;-83
2023/02/19 04:42:18;;;;;;;3.37;3.00;;;;;;;14.15;63.15;99258.94;6979214;28;20798;-82
2023/02/19 04:45:40;;;;;;;3.10;2.80;;;;;;;14.41;63.01;99239.00;6978547;28;20329;-82
2023/02/19 04:49:03;;;;;;;2.50;2.30;;;;;;;14.23;63.25;99252.47;6978282;28;20317;-82
2023/02/19 04:52:24;;;;;;;2.60;2.40;;;;;;;14.00;63.94;99258.41;6978687;28;20232;-81
2023/02/19 04:55:46;;;;;;;2.30;2.20;;;;;;;14.35;63.42;99264.31;6977932;28;20327;-82
2023/02/19 04:59:08;;;;;;;2.63;2.10;;;;;;;14.36;63.22;99284.94;6977795;28;20234;-82
2023/02/19 05:02:30;;;;;;;3.03;2.43;;;;;;;14.21;63.68;99277.09;6977860;28;20701;-82
2023/02/19 05:05:52;;;;;;;2.63;2.43;;;;;;;13.91;63.27;99224.47;6986405;28;20201;-81
2023/02/19 05:09:14;;;;;;;3.30;2.53;;;;;;;14.33;63.21;99277.25;6981096;28;21025;-81
2023/02/19 05:12:35;;;;;;;5.97;4.27;;;;;;;14.14;63.44;99278.97;6979239;28;20260;-82
2023/02/19 05:15:58;;;;;;;2.33;2.23;;;;;;;14.37;63.26;99282.03;6979532;28;20650;-82
2023/02/19 05:19:19;;;;;;;3.87;2.30;;;;;;;14.04;63.63;99284.03;6979320;28;20714;-83
2023/02/19 05:22:42;;;;;;;1.90;1.80;;;;;;;14.10;63.44;99266.09;6978139;28;20298;-82
2023/02/19 05:26:07;;;;;;;2.33;1.80;;;;;;;14.41;62.66;99285.97;6977908;28;20814;-82
2023/02/19 05:29:30;;;;;;;1.80;1.70;;;;;;;14.36;62.11;99272.22;6977685;28;20231;-82
2023/02/19 05:32:52;;;;;;;1.80;1.30;;;;;;;13.72;63.22;99276.88;6977442;28;20295;-82
2023/02/19 05:36:14;;;;;;;2.30;1.40;;;;;;;14.13;61.37;99258.34;6977181;28;20298;-82
2023/02/19 05:39:36;;;;;;;1.13;1.13;;;;;;;13.72;62.20;99279.59;6976101;28;20381;-82
2023/02/19 05:42:58;;;;;;;0.90;0.90;;;;;;;13.93;61.30;99284.69;6993422;28;20222;-81
2023/02/19 05:46:22;;;;;;;1.77;1.30;;;;;;;13.80;61.18;99283.94;7010435;28;20285;-82
2023/02/19 05:49:44;;;;;;;0.97;0.97;;;;;;;13.89;61.09;99285.34;7009253;28;20661;-81
2023/02/19 05:53:05;;;;;;;1.20;1.20;;;;;;;13.90;60.89;99295.16;7009512;28;20351;-82
2023/02/19 05:56:31;;;;;;;1.17;1.07;;;;;;;13.85;60.77;99308.50;7009175;28;20318;-82
2023/02/19 05:59:52;;;;;;;1.40;1.30;;;;;;;13.67;61.06;99305.63;6983736;28;20252;-82
2023/02/19 06:03:14;;;;;;;1.20;1.20;;;;;;;14.07;60.23;99312.59;6980744;28;20258;-82
2023/02/19 06:06:36;;;;;;;1.00;1.00;;;;;;;13.74;60.57;99311.91;6978266;28;20294;-81
2023/02/19 06:09:57;;;;;;;1.70;1.30;;;;;;;13.43;60.20;99271.94;6979412;28;20218;-82
2023/02/19 06:13:20;;;;;;;1.00;1.00;;;;;;;13.92;59.24;99290.38;6978782;28;20343;-82
2023/02/19 06:16:42;;;;;;;1.00;1.00;;;;;;;13.95;59.53;99323.28;7005888;28;20755;-82
2023/02/19 06:20:03;;;;;;;1.00;1.00;;;;;;;13.42;59.52;99299.25;7011326;28;20296;-82
2023/02/19 06:23:27;;;;;;;1.00;1.00;;;;;;;13.18;59.64;99238.47;7010883;28;20271;-82
2023/02/19 06:26:49;;;;;;;1.00;1.00;;;;;;;13.32;59.45;99315.06;7007726;28;20289;-81
2023/02/19 06:30:12;;;;;;;1.10;1.00;;;;;;;13.78;58.91;99353.78;7008605;28;20346;-82
2023/02/19 06:33:35;;;;;;;1.00;1.00;;;;;;;13.55;58.98;99346.13;7007809;28;20301;-82
2023/02/19 06:36:56;;;;;;;0.80;0.80;;;;;;;13.65;59.18;99349.22;7011813;28;20293;-81
2023/02/19 06:40:18;;;;;;;0.80;0.80;;;;;;;13.55;58.85;99327.16;7010292;28;20329;-83
2023/02/19 06:43:40;;;;;;;1.07;1.07;;;;;;;13.66;59.45;99344.63;7007119;28;20755;-82
2023/02/19 06:47:03;;;;;;;1.00;1.00;;;;;;;13.59;59.05;99325.69;7006475;28;20372;-82
2023/02/19 06:50:24;;;;;;;1.10;1.10;;;;;;;13.75;58.58;99352.31;7002508;28;20227;-82
2023/02/19 06:53:46;;;;;;;1.00;1.00;;;;;;;13.54;58.79;99354.44;6979615;28;20356;-82
2023/02/19 06:57:07;;;;;;;1.17;1.17;;;;;;;13.37;58.03;99361.34;6979015;28;20257;-82
2023/02/19 07:00:29;;;;;;;1.07;1.07;;;;;;;13.31;57.33;99354.03;6979636;28;20270;-82
2023/02/19 07:03:52;;;;;;;1.03;1.03;;;;;;;13.39;57.89;99368.22;6980414;28;20371;-82
2023/02/19 07:07:14;;;;;;;1.20;1.20;;;;;;;14.03;55.67;99371.84;6978831;28;20245;-82
2023/02/19 07:10:35;;;;;;;0.93;0.93;;;;;;;13.72;56.02;99373.59;6978892;28;20277;-82
2023/02/19 07:13:57;;;;;;;1.17;1.17;;;;;;;13.67;56.18;99385.06;6982283;28;20293;-81
2023/02/19 07:17:19;;;;;;;1.27;1.20;;;;;;;13.47;56.32;99386.97;6983104;28;20251;-81
2023/02/19 07:20:42;;;;;;;1.40;1.40;;;;;;;13.39;56.06;99353.84;6981152;28;20207;-81
2023/02/19 07:24:04;;;;;;;1.40;1.40;;;;;;;13.27;56.48;99369.06;6980281;28;20768;-80
2023/02/19 07:27:26;;;;;;;1.97;1.60;;;;;;;14.01;55.69;99392.09;6993194;28;20289;-81
2023/02/19 07:30:47;;;;;;;1.70;1.60;;;;;;;14.18;54.81;99412.28;7006658;28;20218;-80
2023/02/19 07:34:09;;;;;;;1.90;1.80;;;;;;;14.19;54.74;99403.13;7006844;28;20299;-80
2023/02/19 07:37:32;;;;;;;1.70;1.60;;;;;;;13.85;54.92;99406.94;7005541;28;20314;-80
2023/02/19 07:40:54;;;;;;;1.50;1.40;;;;;;;13.63;55.39;99393.84;7005956;28;20721;-81
2023/02/19 07:44:15;;;;;;;1.20;1.20;;;;;;;13.91;55.17;99402.53;7004369;28;20348;-81
2023/02/19 07:47:37;;;;;;;1.53;1.40;;;;;;;13.97;54.96;99404.38;6978058;28;20319;-81
2023/02/19 07:51:00;;;;;;;1.67;1.57;;;;;;;13.47;56.01;99380.72;6978661;28;20249;-82
2023/02/19 07:54:23;;;;;;;1.30;1.30;;;;;;;14.16;54.74;99414.38;6980122;28;20699;-81
2023/02/19 07:57:44;;;;;;;1.50;1.40;;;;;;;13.88;55.21;99422.78;6978284;28;20311;-81
2023/02/19 08:01:07;;;;;;;1.40;1.40;;;;;;;14.15;54.54;99448.78;6998035;28;20215;-81
2023/02/19 08:04:29;;;;;;;1.60;1.50;;;;;;;14.54;54.00;99439.72;6996197;28;20208;-80
2023/02/19 08:07:50;;;;;;;1.30;1.30;;;;;;;14.68;53.82;99438.63;6983401;28;20315;-81
2023/02/19 08:14:53;;;;;;;1.77;1.67;;;;;;;14.45;54.33;99435.59;7004328;28;20210;-79
2023/02/19 08:18:15;;;;;;;2.10;1.90;;;;;;;14.34;54.32;99417.28;6984073;28;20693;-80
2023/02/19 08:21:36;;;;;;;2.40;2.00;;;;;;;14.13;55.00;99426.47;6977942;28;21516;-79
2023/02/19 08:24:58;;;;;;;1.90;1.80;;;;;;;14.49;54.19;99424.09;6989474;28;20294;-83
2023/02/19 08:28:21;;;;;;;2.10;2.00;;;;;;;14.43;54.21;99437.66;6976462;28;20290;-80
2023/02/19 08:31:42;;;;;;;2.00;1.90;;;;;;;14.14;55.26;99451.69;6990689;28;20227;-80
2023/02/19 08:35:04;;;;;;;2.07;1.97;;;;;;;14.14;54.34;99438.13;6986128;28;20232;-84
2023/02/19 08:38:26;;;;;;;1.87;1.77;;;;;;;13.80;54.80;99446.56;6975569;28;20243;-80
2023/02/19 08:41:47;;;;;;;1.90;1.80;;;;;;;14.03;54.59;99439.63;6982770;28;20293;-84
2023/02/19 08:45:10;;;;;;;2.20;2.00;;;;;;;14.44;53.46;99463.75;6974024;28;20212;-81
2023/02/19 08:48:32;;;;;;;1.90;1.80;;;;;;;14.54;53.51;99466.84;6995552;28;20230;-79
2023/02/19 08:51:53;;;;;;;2.40;2.20;;;;;;;14.40;54.41;99470.66;7001116;28;20299;-79
2023/02/19 08:55:15;;;;;;;2.27;2.17;;;;;;;14.73;53.33;99461.34;7003250;28;20321;-79
2023/02/19 08:58:37;;;;;;;2.20;2.10;;;;;;;15.16;52.77;99467.81;6995083;28;20242;-83
2023/02/19 09:02:00;;;;;;;1.50;1.50;;;;;;;14.30;52.25;99456.72;6977402;28;20214;-80
2023/02/19 09:05:21;;;;;;;1.80;1.70;;;;;;;13.94;53.58;99486.16;7001052;28;20250;-81
2023/02/19 09:08:43;;;;;;;1.77;1.67;;;;;;;14.43;52.48;99483.78;7003829;28;20267;-82
2023/02/19 09:12:05;;;;;;;3.47;3.17;;;;;;;14.41;52.73;99489.47;6995988;28;20259;-81
2023/02/19 09:15:28;;;;;;;4.63;3.23;;;;;;;14.59;52.11;99495.03;7008627;28;20261;-81
2023/02/19 09:18:51;;;;;;;1.70;1.60;;;;;;;14.58;51.51;99504.19;6998919;28;20230;-80
2023/02/19 09:22:12;;;;;;;2.13;1.93;;;;;;;14.59;52.03;99505.91;7000634;28;20287;-81
2023/02/19 09:25:34;;;;;;;2.00;1.80;;;;;;;14.02;53.62;99494.06;6998634;28;20270;-84
2023/02/19 09:28:55;;;;;;;2.30;2.10;;;;;;;14.46;52.12;99494.25;7010226;28;20227;-81
2023/02/19 09:32:17;;;;;;;1.63;1.53;;;;;;;14.28;52.30;99502.22;7012268;28;20793;-82
2023/02/19 09:35:40;;;;;;;3.23;1.83;;;;;;;14.39;51.30;99458.97;7011034;28;20265;-80
2023/02/19 09:39:03;;;;;;;2.07;1.93;;;;;;;14.63;51.63;99517.97;6986897;28;20668;-78
2023/02/19 09:42:28;;;;;;;3.00;1.70;;;;;;;14.50;51.60;99490.03;6988040;28;20213;-81
2023/02/19 09:45:58;;;;;;;2.73;2.00;;;;;;;14.79;50.30;99508.50;6980669;28;20675;-81
2023/02/19 09:49:23;;;;;;;2.50;1.93;;;;;;;14.50;49.90;99473.75;6985809;28;20294;-81
2023/02/19 09:52:50;;;;;;;2.70;1.70;;;;;;;14.62;50.63;99531.78;6982474;28;20293;-83
2023/02/19 09:56:11;;;;;;;2.77;2.10;;;;;;;14.65;50.10;99526.75;6982440;28;20208;-82
2023/02/19 09:59:36;;;;;;;2.27;2.00;;;;;;;14.78;49.45;99523.13;6994469;28;20237;-80
2023/02/19 10:03:03;;;;;;;2.20;2.00;;;;;;;15.04;48.67;99506.75;6982999;28;20230;-80
2023/02/19 10:06:28;;;;;;;2.17;1.70;;;;;;;14.90;47.79;99497.81;6982471;28;20198;-79
2023/02/19 10:09:54;;;;;;;4.07;1.80;;;;;;;14.99;47.75;99523.66;6999989;28;20273;-80
2023/02/19 10:13:20;;;;;;;2.60;1.50;;;;;;;14.93;47.01;99521.81;7007895;28;20207;-82
2023/02/19 10:16:43;;;;;;;2.67;1.70;;;;;;;15.41;45.88;99517.66;6995203;28;20220;-82
2023/02/19 10:20:06;;;;;;;1.63;1.53;;;;;;;15.19;45.89;99516.28;6987298;28;20635;-80
2023/02/19 10:23:27;;;;;;;2.57;1.60;;;;;;;15.32;45.05;99521.66;7000117;28;20726;-80
2023/02/19 10:26:51;;;;;;;4.70;2.07;;;;;;;15.69;44.82;99536.28;6994335;28;20273;-82
2023/02/19 10:30:18;;;;;;;2.80;1.97;;;;;;;15.79;44.67;99531.16;6978932;28;20350;-80
2023/02/19 10:33:49;;;;;;;3.50;1.60;;;;;;;15.55;43.16;99538.25;6986869;28;20203;-81
2023/02/19 10:37:13;;;;;;;2.90;1.70;;;;;;;15.61;44.34;99537.38;6992531;28;20226;-80
2023/02/19 10:40:35;;;;;;;2.53;1.90;;;;;;;15.67;42.98;99539.22;6993360;28;20245;-81
2023/02/19 10:44:03;;;;;;;3.03;1.80;;;;;;;16.14;43.06;99551.38;6995629;28;20269;-82
2023/02/19 10:47:26;;;;;;;2.63;1.53;;;;;;;15.99;42.72;99556.34;6998960;28;20227;-79
2023/02/19 10:50:56;;;;;;;2.40;1.70;;;;;;;15.58;43.84;99559.53;6989648;28;20261;-80
2023/02/19 10:54:20;;;;;;;4.20;1.60;;;;;;;15.31;44.52;99549.00;7013142;28;20289;-80
2023/02/19 10:57:41;;;;;;;3.13;1.60;;;;;;;15.97;43.44;99572.03;7003572;28;20450;-80
2023/02/19 11:01:12;;;;;;;3.17;1.73;;;;;;;15.05;44.46;99565.44;7005139;28;20341;-80
2023/02/19 11:04:36;;;;;;;2.20;1.40;;;;;;;15.68;43.69;99527.28;6982296;28;20299;-80
2023/02/19 11:07:58;;;;;;;2.77;1.30;;;;;;;16.12;42.43;99548.91;6989092;28;20320;-81
2023/02/19 11:11:29;;;;;;;2.40;1.80;;;;;;;15.70;44.43;99554.25;6982783;28;20299;-80
2023/02/19 11:14:50;;;;;;;1.57;1.47;;;;;;;16.40;43.33;99548.47;6980789;28;20335;-80
2023/02/19 11:18:22;;;;;;;1.50;1.40;;;;;;;16.17;43.48;99550.94;7004938;28;20233;-80
2023/02/19 11:21:43;;;;;;;2.67;1.53;;;;;;;15.91;43.39;99527.53;6982826;28;20247;-80
2023/02/19 11:25:06;;;;;;;2.43;1.33;;;;;;;16.58;43.32;99556.66;6990496;28;20574;-81
2023/02/19 11:28:31;;;;;;;3.80;1.70;;;;;;;15.78;43.36;99515.91;6983115;28;20319;-81
2023/02/19 11:31:53;;;;;;;4.20;1.70;;;;;;;15.63;44.32;99567.06;6981627;28;20694;-82
2023/02/19 11:35:21;;;;;;;3.40;1.53;;;;;;;16.05;43.87;99555.44;6993547;28;20348;-80
2023/02/19 11:38:43;;;;;;;2.13;1.50;;;;;;;15.89;43.34;99556.84;6976892;28;20319;-81
2023/02/19 11:42:24;;;;;;;1.70;1.60;;;;;;;15.23;45.36;99513.97;6979584;28;20239;-83
2023/02/19 11:45:50;;;;;;;1.90;1.40;;;;;;;14.90;44.49;99465.25;6986309;28;20667;-80
2023/02/19 11:49:24;;;;;;;1.90;1.67;;;;;;;16.13;43.44;99568.78;7006136;28;20695;-79
2023/02/19 11:52:55;;;;;;;2.10;1.90;;;;;;;15.26;43.50;99549.66;6993507;28;20203;-82
2023/02/19 11:56:33;;;;;;;2.43;1.60;;;;;;;15.48;43.55;99589.09;6993310;28;20770;-83
2023/02/19 12:00:00;;;;;;;3.73;1.70;;;;;;;15.42;44.04;99572.81;6916246;28;20227;-82
2023/02/19 12:03:52;;;;;;;2.13;1.60;;;;;;;15.46;44.73;99584.94;6897872;28;20273;-80
2023/02/19 12:07:19;;;;;;;2.17;1.90;;;;;;;15.57;44.18;99590.50;6866855;28;20310;-80
2023/02/19 12:10:54;;;;;;;3.83;1.77;;;;;;;16.24;43.74;99587.09;6905486;28;20254;-80
2023/02/19 12:14:39;;;;;;;4.70;2.50;;;;;;;15.84;43.91;99523.19;6902313;28;20294;-80
2023/02/19 12:18:35;;;;;;;1.97;1.77;;;;;;;15.60;43.79;99589.22;6888164;28;20296;-80
2023/02/19 12:22:11;;;;;;;2.53;1.80;;;;;;;15.51;44.52;99580.50;6896589;28;20287;-80
2023/02/19 12:25:46;;;;;;;3.60;1.60;;;;;;;15.66;43.95;99570.19;6916358;28;20230;-81
2023/02/19 12:29:23;;;;;;;2.80;1.60;;;;;;;16.19;43.57;99551.56;6917793;28;20242;-80
2023/02/19 12:32:58;;;;;;;1.97;1.43;;;;;;;16.21;42.80;99568.50;6918170;28;20202;-79
2023/02/19 12:36:26;;;;;;;2.97;1.57;;;;;;;16.24;41.96;99573.50;6952477;28;20314;-79
2023/02/19 12:39:53;;;;;;;2.53;1.70;;;;;;;15.97;42.52;99559.28;7004565;28;20309;-80
2023/02/19 12:43:17;;;;;;;3.00;1.93;;;;;;;16.40;42.44;99586.56;7004688;28;20193;-81
2023/02/19 12:46:40;;;;;;;2.00;1.90;;;;;;;15.82;43.81;99590.56;6990840;28;20262;-79
2023/02/19 12:50:05;;;;;;;1.87;1.77;;;;;;;15.45;44.27;99575.13;7003443;28;20287;-80
2023/02/19 12:53:38;;;;;;;1.77;1.67;;;;;;;15.75;44.62;99554.44;7004209;28;20246;-81
2023/02/19 12:57:01;;;;;;;1.80;1.50;;;;;;;16.30;42.91;99569.88;7002530;28;20368;-80
2023/02/19 13:00:29;;;;;;;1.83;1.70;;;;;;;15.89;42.93;99548.69;7003249;28;20232;-81
2023/02/19 13:03:55;;;;;;;4.87;2.10;;;;;;;15.89;43.55;99543.25;7003917;28;20326;-80
2023/02/19 13:07:19;;;;;;;1.63;1.53;;;;;;;16.11;42.59;99547.22;6980312;28;20712;-79
2023/02/19 13:10:44;;;;;;;3.00;2.10;;;;;;;16.28;42.78;99555.66;6975204;28;20712;-79
2023/02/19 13:14:09;;;;;;;5.77;2.37;;;;;;;16.29;42.85;99573.66;6975925;28;20213;-80
2023/02/19 13:17:37;;;;;;;3.27;1.77;;;;;;;16.29;42.44;99539.09;6974932;28;20858;-80
2023/02/19 13:20:59;;;;;;;3.00;1.80;;;;;;;16.13;42.21;99555.16;6975965;28;20785;-80
2023/02/19 13:24:23;;;;;;;1.90;1.80;;;;;;;15.64;43.09;99576.88;6975976;28;20690;-80
2023/02/19 13:28:13;;;;;;;2.60;1.53;;;;;;;15.30;43.77;99550.06;6974600;28;20257;-80
2023/02/19 13:31:49;;;;;;;2.27;1.90;;;;;;;15.50;43.91;99554.38;6968995;28;20427;-80
2023/02/19 13:35:24;;;;;;;3.33;1.87;;;;;;;15.41;43.47;99552.97;6975866;28;20260;-80
2023/02/19 13:38:47;;;;;;;2.60;1.93;;;;;;;14.97;43.95;99552.94;6975178;28;20353;-82
2023/02/19 13:42:23;;;;;;;1.90;1.60;;;;;;;15.05;44.39;99519.28;6989051;28;20298;-80
2023/02/19 13:45:46;;;;;;;2.63;2.43;;;;;;;15.79;43.64;99567.34;6979038;28;20245;-80
2023/02/19 13:49:40;;;;;;;3.10;1.97;;;;;;;15.69;44.83;99558.84;6977661;28;20312;-80
2023/02/19 13:53:43;;;;;;;3.53;2.03;;;;;;;15.51;48.00;99566.91;6991213;28;20198;-80
2023/02/19 13:57:27;;;;;;;2.03;1.57;;;;;;;14.83;49.44;99539.63;7004898;28;20232;-80
2023/02/19 14:00:51;;;;;;;3.47;2.20;;;;;;;15.20;50.36;99575.00;7004091;28;20200;-80
2023/02/19 14:04:19;;;;;;;4.17;2.20;;;;;;;15.41;49.77;99580.16;7005173;28;20686;-80
2023/02/19 14:08:02;;;;;;;2.30;2.10;;;;;;;15.12;50.39;99571.69;7008034;28;20720;-81
2023/02/19 14:12:04;;;;;;;4.60;2.23;;;;;;;15.18;50.82;99565.38;7009895;28;20209;-81
2023/02/19 14:15:42;;;;;;;4.13;2.60;;;;;;;15.48;50.83;99574.66;6991338;28;20237;-81
2023/02/19 14:19:04;;;;;;;3.80;2.03;;;;;;;15.28;52.07;99566.56;7009402;28;20279;-81
2023/02/19 14:23:00;;;;;;;4.90;3.13;;;;;;;15.24;52.66;99567.25;7008792;28;20302;-81
2023/02/19 14:26:22;;;;;;;5.27;2.63;;;;;;;15.26;52.59;99565.13;7008364;28;20235;-81
2023/02/19 14:29:45;;;;;;;3.73;2.77;;;;;;;15.59;51.26;99569.38;7009295;28;20314;-81
2023/02/19 14:33:09;;;;;;;3.33;1.93;;;;;;;15.04;51.17;99578.19;7008346;28;20207;-80
2023/02/19 14:36:38;;;;;;;2.67;2.30;;;;;;;15.13;50.88;99586.94;7007801;28;20290;-82
2023/02/19 14:40:00;;;;;;;3.10;2.20;;;;;;;15.14;50.55;99577.72;7007915;28;20201;-79
2023/02/19 14:43:23;;;;;;;3.60;2.37;;;;;;;15.04;50.68;99574.66;7007777;28;20221;-81
2023/02/19 14:46:51;;;;;;;2.27;1.83;;;;;;;15.72;50.02;99577.44;7007006;28;20300;-81
2023/02/19 14:50:15;;;;;;;3.93;2.77;;;;;;;15.80;49.12;99568.22;7007944;28;20199;-81
2023/02/19 14:53:38;;;;;;;5.27;2.10;;;;;;;15.77;49.61;99584.94;6990087;28;20206;-81
2023/02/19 14:57:01;;;;;;;3.50;2.30;;;;;;;16.11;48.87;99587.22;6990432;28;20353;-81
2023/02/19 15:00:24;;;;;;;4.87;2.20;;;;;;;15.44;49.31;99590.56;6993442;28;20248;-81
2023/02/19 15:03:49;;;;;;;3.70;2.43;;;;;;;15.72;49.70;99580.16;6980675;28;20222;-82
2023/02/19 15:07:22;;;;;;;4.10;2.33;;;;;;;15.77;49.17;99593.94;6993556;28;20585;-82
2023/02/19 15:10:43;;;;;;;4.23;2.20;;;;;;;15.32;49.10;99602.28;7007732;28;20194;-80
2023/02/19 15:14:07;;;;;;;4.37;2.33;;;;;;;15.61;48.04;99599.03;7009004;28;20660;-82
2023/02/19 15:17:30;;;;;;;4.30;2.33;;;;;;;15.45;48.67;99613.16;7009807;28;20242;-81
2023/02/19 15:20:59;;;;;;;4.37;2.30;;;;;;;15.37;47.43;99610.69;7008605;28;20651;-81
2023/02/19 15:24:21;;;;;;;3.00;2.67;;;;;;;15.56;47.00;99623.31;7008616;28;20191;-81
2023/02/19 15:27:43;;;;;;;4.83;2.70;;;;;;;15.51;46.15;99632.13;7006943;28;20226;-83
2023/02/19 15:31:13;;;;;;;4.50;2.63;;;;;;;15.02;46.16;99633.75;7010380;28;20231;-82
2023/02/19 15:34:34;;;;;;;2.93;2.60;;;;;;;15.41;45.94;99629.06;7012016;28;20259;-83
2023/02/19 15:37:57;;;;;;;5.37;4.10;;;;;;;15.66;46.07;99618.25;7006786;28;20321;-83
2023/02/19 15:41:21;;;;;;;5.33;2.97;;;;;;;15.80;45.17;99631.56;7005574;28;20700;-83
2023/02/19 15:44:48;;;;;;;4.17;2.67;;;;;;;15.50;45.79;99613.31;6985583;28;20625;-82
2023/02/19 15:48:12;;;;;;;2.97;2.27;;;;;;;15.72;45.60;99630.97;6978249;28;20309;-82
2023/02/19 15:51:38;;;;;;;6.53;2.67;;;;;;;15.95;45.45;99621.22;6983509;28;20232;-83
2023/02/19 15:55:07;;;;;;;3.50;3.17;;;;;;;15.71;46.08;99616.56;6981950;28;20265;-82
2023/02/19 15:58:31;;;;;;;3.47;2.00;;;;;;;15.37;46.84;99603.38;6989915;28;20254;-83
2023/02/19 16:01:53;;;;;;;2.43;2.10;;;;;;;14.65;47.89;99613.59;6997178;28;20297;-82
2023/02/19 16:05:17;;;;;;;2.47;1.93;;;;;;;14.89;47.54;99623.78;7006533;28;20261;-81
2023/02/19 16:08:40;;;;;;;3.07;2.30;;;;;;;15.07;46.75;99626.66;7004060;28;20225;-82
2023/02/19 16:12:04;;;;;;;10.23;9.17;;;;;;;14.83;47.98;99632.78;7005816;28;20274;-81
2023/02/19 16:15:25;;;;;;;5.27;3.30;;;;;;;14.55;48.75;99642.19;6977174;28;20227;-82
2023/02/19 16:18:49;;;;;;;3.97;2.93;;;;;;;15.00;47.82;99644.88;6976133;28;20319;-81
2023/02/19 16:22:11;;;;;;;3.67;2.60;;;;;;;15.31;46.21;99644.13;6978357;28;20262;-81
2023/02/19 16:25:38;;;;;;;3.43;2.50;;;;;;;15.33;46.25;99625.75;6977133;28;20257;-82
2023/02/19 16:29:01;;;;;;;5.37;2.63;;;;;;;15.35;47.13;99650.81;6979087;28;20232;-82